createdAt,value
2023-03-04T00:00:32.449Z,81.00
2023-03-04T00:01:32.803Z,81.10
2023-03-04T00:02:33.060Z,81.10
2023-03-04T00:03:33.256Z,79.50
2023-03-04T00:04:33.595Z,78.90
2023-03-04T00:05:33.914Z,80.30
2023-03-04T00:06:34.268Z,79.60
2023-03-04T00:07:34.565Z,82.60
2023-03-04T00:08:34.859Z,80.40
2023-03-04T00:09:35.238Z,79.20
2023-03-04T00:10:35.555Z,81.00
2023-03-04T00:11:35.857Z,80.60
2023-03-04T00:12:36.135Z,80.40
2023-03-04T00:13:36.332Z,79.30
2023-03-04T00:14:36.588Z,80.10
2023-03-04T00:15:36.881Z,76.80
2023-03-04T00:16:37.304Z,77.70
2023-03-04T00:17:37.534Z,78.60
2023-03-04T00:18:37.737Z,77.70
2023-03-04T00:19:38.048Z,79.80
2023-03-04T00:20:38.377Z,84.30
2023-03-04T00:21:38.597Z,87.80
2023-03-04T00:22:38.990Z,85.90
2023-03-04T00:23:39.162Z,88.60
2023-03-04T00:24:39.543Z,88.60
2023-03-04T00:25:41.930Z,87.60
2023-03-04T00:26:40.134Z,88.10
2023-03-04T00:27:40.461Z,87.00
2023-03-04T00:28:40.760Z,84.30
2023-03-04T00:29:41.028Z,87.90
2023-03-04T00:30:41.315Z,86.90
2023-03-04T00:31:41.697Z,88.90
2023-03-04T00:32:42.085Z,86.10
2023-03-04T00:33:42.272Z,88.20
2023-03-04T00:34:42.535Z,84.60
2023-03-04T00:35:42.923Z,86.90
2023-03-04T00:36:43.116Z,83.00
2023-03-04T00:37:43.492Z,83.00
2023-03-04T00:38:43.820Z,86.00
2023-03-04T00:39:44.170Z,81.40
2023-03-04T00:40:44.382Z,82.70
2023-03-04T00:41:44.688Z,82.80
2023-03-04T00:42:44.944Z,81.70
2023-03-04T00:43:45.274Z,79.00
2023-03-04T00:44:45.637Z,83.10
2023-03-04T00:45:45.931Z,83.30
2023-03-04T00:46:46.106Z,85.80
2023-03-04T00:47:46.339Z,86.70
2023-03-04T00:48:46.676Z,85.30
2023-03-04T00:49:47.005Z,85.40
2023-03-04T00:50:47.223Z,83.90
2023-03-04T00:51:47.600Z,84.90
2023-03-04T00:52:47.913Z,81.80
2023-03-04T00:53:48.151Z,81.70
2023-03-04T00:54:48.383Z,83.00
2023-03-04T00:55:48.666Z,82.40
2023-03-04T00:56:49.044Z,83.70
2023-03-04T00:57:49.382Z,84.10
2023-03-04T00:58:49.703Z,78.70
2023-03-04T00:59:49.943Z,79.80
2023-03-04T01:00:50.247Z,79.00
2023-03-04T01:01:50.582Z,78.90
2023-03-04T01:02:50.910Z,78.20
2023-03-04T01:03:51.221Z,77.90
2023-03-04T01:04:51.548Z,78.00
2023-03-04T01:05:51.847Z,78.80
2023-03-04T01:06:52.066Z,77.50
2023-03-04T01:07:52.440Z,75.20
2023-03-04T01:08:52.771Z,76.10
2023-03-04T01:09:53.125Z,76.00
2023-03-04T01:10:53.332Z,73.80
2023-03-04T01:11:53.646Z,74.40
2023-03-04T01:12:53.893Z,74.90
2023-03-04T01:13:54.194Z,72.20
2023-03-04T01:14:54.515Z,72.30
2023-03-04T01:15:54.838Z,73.20
2023-03-04T01:16:55.239Z,70.90
2023-03-04T01:17:55.486Z,71.20
2023-03-04T01:18:55.721Z,69.20
2023-03-04T01:19:56.049Z,70.20
2023-03-04T01:20:56.378Z,67.70
2023-03-04T01:21:56.737Z,67.70
2023-03-04T01:22:56.965Z,66.20
2023-03-04T01:23:57.291Z,67.60
2023-03-04T01:24:57.584Z,66.70
2023-03-04T01:25:57.917Z,65.20
2023-03-04T01:26:58.301Z,66.70
2023-03-04T01:27:58.622Z,66.10
2023-03-04T01:28:58.879Z,65.90
2023-03-04T01:29:59.189Z,66.30
2023-03-04T01:30:59.466Z,64.40
2023-03-04T01:31:59.772Z,65.00
2023-03-04T01:32:59.996Z,66.20
2023-03-04T01:34:00.304Z,64.80
2023-03-04T01:35:00.634Z,63.20
2023-03-04T01:36:00.958Z,63.00
2023-03-04T01:37:01.288Z,63.10
2023-03-04T01:38:01.471Z,61.80
2023-03-04T01:39:01.722Z,60.40
2023-03-04T01:40:02.007Z,61.50
2023-03-04T01:41:02.354Z,62.20
2023-03-04T01:42:02.713Z,61.80
2023-03-04T01:43:02.903Z,61.40
2023-03-04T01:44:03.164Z,59.80
2023-03-04T01:45:03.491Z,61.50
2023-03-04T01:46:03.893Z,61.30
2023-03-04T01:47:04.104Z,61.20
2023-03-04T01:48:04.414Z,60.60
2023-03-04T01:49:04.789Z,60.30
2023-03-04T01:50:05.028Z,60.50
2023-03-04T01:51:05.238Z,59.50
2023-03-04T01:52:05.574Z,59.00
2023-03-04T01:53:05.884Z,57.90
2023-03-04T01:54:06.163Z,57.80
2023-03-04T01:55:06.349Z,54.90
2023-03-04T01:56:06.707Z,55.70
2023-03-04T01:57:07.045Z,55.80
2023-03-04T01:58:07.355Z,55.40
2023-03-04T01:59:07.671Z,54.50
2023-03-04T02:00:07.985Z,54.20
2023-03-04T02:01:08.275Z,54.80
2023-03-04T02:02:08.680Z,54.80
2023-03-04T02:03:08.852Z,53.40
2023-03-04T02:04:09.270Z,52.20
2023-03-04T02:05:09.416Z,52.30
2023-03-04T02:06:09.782Z,52.50
2023-03-04T02:07:10.087Z,52.30
2023-03-04T02:08:10.395Z,52.20
2023-03-04T02:09:10.696Z,51.10
2023-03-04T02:10:10.981Z,51.00
2023-03-04T02:11:11.255Z,50.20
2023-03-04T02:12:11.600Z,51.40
2023-03-04T02:13:11.915Z,50.40
2023-03-04T02:14:12.219Z,50.90
2023-03-04T02:15:12.515Z,49.90
2023-03-04T02:16:12.841Z,51.80
2023-03-04T02:17:13.170Z,49.50
2023-03-04T02:18:13.484Z,50.60
2023-03-04T02:19:13.778Z,49.30
2023-03-04T02:20:14.153Z,49.10
2023-03-04T02:21:14.497Z,47.40
2023-03-04T02:22:14.843Z,47.10
2023-03-04T02:23:15.153Z,48.40
2023-03-04T02:24:15.496Z,47.90
2023-03-04T02:25:15.811Z,46.30
2023-03-04T02:26:16.174Z,46.40
2023-03-04T02:27:16.483Z,43.80
2023-03-04T02:28:16.764Z,43.40
2023-03-04T02:29:17.134Z,42.00
2023-03-04T02:30:17.414Z,43.50
2023-03-04T02:31:17.770Z,43.90
2023-03-04T02:32:18.179Z,43.10
2023-03-04T02:33:18.444Z,43.20
2023-03-04T02:34:18.796Z,44.20
2023-03-04T02:35:19.134Z,43.50
2023-03-04T02:36:19.338Z,44.80
2023-03-04T02:37:19.682Z,43.00
2023-03-04T02:38:19.894Z,43.50
2023-03-04T02:39:20.194Z,44.40
2023-03-04T02:40:20.427Z,43.70
2023-03-04T02:41:20.752Z,42.80
2023-03-04T02:42:21.146Z,41.70
2023-03-04T02:43:21.364Z,40.80
2023-03-04T02:44:21.657Z,43.20
2023-03-04T02:45:21.958Z,41.70
2023-03-04T02:46:22.319Z,43.20
2023-03-04T02:47:22.524Z,42.40
2023-03-04T02:48:22.824Z,41.70
2023-03-04T02:49:23.149Z,41.60
2023-03-04T02:50:23.456Z,39.90
2023-03-04T02:51:23.763Z,39.40
2023-03-04T02:52:24.052Z,39.10
2023-03-04T02:53:24.447Z,38.00
2023-03-04T02:54:24.624Z,38.80
2023-03-04T02:55:24.938Z,39.60
2023-03-04T02:56:25.219Z,39.30
2023-03-04T02:57:25.567Z,38.90
2023-03-04T02:58:25.906Z,40.20
2023-03-04T02:59:26.184Z,38.70
2023-03-04T03:00:26.516Z,39.10
2023-03-04T03:01:26.887Z,39.10
2023-03-04T03:02:27.210Z,38.00
2023-03-04T03:03:27.494Z,39.50
2023-03-04T03:04:27.797Z,37.80
2023-03-04T03:05:28.085Z,38.40
2023-03-04T03:06:28.418Z,37.10
2023-03-04T03:07:28.765Z,38.80
2023-03-04T03:08:29.108Z,37.40
2023-03-04T03:09:29.444Z,38.90
2023-03-04T03:10:29.738Z,39.10
2023-03-04T03:11:30.067Z,37.00
2023-03-04T03:12:30.339Z,37.20
2023-03-04T03:13:30.730Z,37.00
2023-03-04T03:14:31.029Z,36.60
2023-03-04T03:15:31.348Z,35.80
2023-03-04T03:16:31.657Z,35.50
2023-03-04T03:17:31.989Z,35.70
2023-03-04T03:18:32.296Z,37.80
2023-03-04T03:19:32.607Z,36.10
2023-03-04T03:20:32.912Z,35.50
2023-03-04T03:21:33.230Z,34.50
2023-03-04T03:22:33.545Z,34.80
2023-03-04T03:23:33.908Z,34.20
2023-03-04T03:24:34.078Z,33.90
2023-03-04T03:25:34.463Z,33.20
2023-03-04T03:26:34.648Z,35.00
2023-03-04T03:27:34.936Z,34.60
2023-03-04T03:28:35.245Z,33.90
2023-03-04T03:29:35.572Z,33.10
2023-03-04T03:30:35.892Z,32.40
2023-03-04T03:31:36.264Z,33.30
2023-03-04T03:32:36.615Z,31.90
2023-03-04T03:33:36.790Z,32.90
2023-03-04T03:34:37.102Z,31.60
2023-03-04T03:35:37.424Z,31.60
2023-03-04T03:36:37.768Z,31.70
2023-03-04T03:37:37.963Z,31.40
2023-03-04T03:38:38.303Z,30.60
2023-03-04T03:39:38.612Z,30.30
2023-03-04T03:40:38.924Z,31.00
2023-03-04T03:41:39.238Z,30.00
2023-03-04T03:42:39.543Z,31.60
2023-03-04T03:43:39.851Z,30.60
2023-03-04T03:44:40.134Z,31.10
2023-03-04T03:45:40.512Z,29.40
2023-03-04T03:46:40.831Z,30.50
2023-03-04T03:47:41.103Z,29.70
2023-03-04T03:48:41.461Z,30.20
2023-03-04T03:49:41.791Z,30.70
2023-03-04T03:50:42.092Z,30.30
2023-03-04T03:51:42.394Z,28.50
2023-03-04T03:52:42.706Z,29.00
2023-03-04T03:53:43.076Z,29.90
2023-03-04T03:54:43.382Z,29.70
2023-03-04T03:55:43.674Z,27.20
2023-03-04T03:56:43.974Z,27.90
2023-03-04T03:57:44.337Z,27.10
2023-03-04T03:58:44.637Z,26.90
2023-03-04T03:59:44.946Z,25.60
2023-03-04T04:00:45.217Z,27.20
2023-03-04T04:01:45.588Z,27.90
2023-03-04T04:02:46.011Z,26.80
2023-03-04T04:03:46.229Z,25.90
2023-03-04T04:04:46.523Z,25.00
2023-03-04T04:05:46.800Z,24.70
2023-03-04T04:06:47.134Z,25.20
2023-03-04T04:07:47.489Z,25.90
2023-03-04T04:08:47.778Z,25.30
2023-03-04T04:09:48.130Z,25.20
2023-03-04T04:10:48.409Z,24.90
2023-03-04T04:11:48.727Z,24.60
2023-03-04T04:12:49.101Z,26.80
2023-03-04T04:13:49.403Z,25.10
2023-03-04T04:14:49.713Z,25.10
2023-03-04T04:15:50.019Z,24.40
2023-03-04T04:16:50.410Z,24.30
2023-03-04T04:17:50.588Z,24.00
2023-03-04T04:18:50.921Z,24.50
2023-03-04T04:19:51.280Z,25.20
2023-03-04T04:20:51.593Z,23.50
2023-03-04T04:21:51.898Z,24.20
2023-03-04T04:22:52.204Z,22.60
2023-03-04T04:23:52.468Z,23.90
2023-03-04T04:24:52.882Z,23.60
2023-03-04T04:25:53.098Z,23.10
2023-03-04T04:26:53.371Z,23.80
2023-03-04T04:27:53.724Z,24.20
2023-03-04T04:28:54.004Z,24.10
2023-03-04T04:29:54.355Z,23.50
2023-03-04T04:30:54.673Z,23.80
2023-03-04T04:31:55.029Z,23.60
2023-03-04T04:32:55.205Z,23.80
2023-03-04T04:33:55.489Z,23.40
2023-03-04T04:34:55.859Z,23.40
2023-03-04T04:35:56.239Z,24.10
2023-03-04T04:36:56.402Z,23.30
2023-03-04T04:37:56.763Z,23.60
2023-03-04T04:38:57.054Z,23.50
2023-03-04T04:39:57.422Z,23.40
2023-03-04T04:40:57.697Z,24.10
2023-03-04T04:41:58.039Z,23.20
2023-03-04T04:42:58.372Z,22.90
2023-03-04T04:43:58.694Z,23.20
2023-03-04T04:44:59.042Z,23.80
2023-03-04T04:45:59.408Z,22.60
2023-03-04T04:46:59.695Z,23.60
2023-03-04T04:48:00.045Z,22.30
2023-03-04T04:49:00.357Z,23.30
2023-03-04T04:50:00.980Z,23.80
2023-03-04T04:51:00.944Z,23.00
2023-03-04T04:52:01.310Z,24.90
2023-03-04T04:53:01.588Z,22.90
2023-03-04T04:54:01.927Z,23.40
2023-03-04T04:55:02.289Z,23.10
2023-03-04T04:56:02.441Z,22.90
2023-03-04T04:57:02.785Z,23.20
2023-03-04T04:58:03.109Z,22.20
2023-03-04T04:59:03.416Z,23.30
2023-03-04T05:00:03.662Z,22.60
2023-03-04T05:01:03.990Z,23.00
2023-03-04T05:02:04.214Z,21.80
2023-03-04T05:03:04.578Z,23.40
2023-03-04T05:04:04.764Z,22.80
2023-03-04T05:05:05.117Z,22.40
2023-03-04T05:06:05.336Z,22.50
2023-03-04T05:07:05.655Z,23.50
2023-03-04T05:08:06.021Z,22.70
2023-03-04T05:09:06.218Z,22.70
2023-03-04T05:10:06.543Z,23.10
2023-03-04T05:11:06.852Z,21.80
2023-03-04T05:12:07.098Z,21.80
2023-03-04T05:13:07.405Z,21.90
2023-03-04T05:14:07.728Z,22.60
2023-03-04T05:15:08.073Z,22.80
2023-03-04T05:16:08.343Z,21.60
2023-03-04T05:17:08.555Z,21.20
2023-03-04T05:18:08.844Z,22.20
2023-03-04T05:19:09.455Z,22.70
2023-03-04T05:20:09.544Z,21.80
2023-03-04T05:21:09.755Z,21.90
2023-03-04T05:22:10.049Z,21.40
2023-03-04T05:23:10.389Z,21.50
2023-03-04T05:24:10.740Z,22.00
2023-03-04T05:25:11.198Z,21.00
2023-03-04T05:26:11.409Z,21.10
2023-03-04T05:27:11.741Z,21.80
2023-03-04T05:28:12.041Z,21.40
2023-03-04T05:29:12.273Z,23.50
2023-03-04T05:30:12.639Z,21.20
2023-03-04T05:31:13.032Z,21.40
2023-03-04T05:32:13.331Z,22.10
2023-03-04T05:33:13.626Z,20.60
2023-03-04T05:34:13.962Z,21.40
2023-03-04T05:35:14.306Z,22.50
2023-03-04T05:36:14.525Z,21.60
2023-03-04T05:37:14.838Z,22.20
2023-03-04T05:38:15.197Z,22.30
2023-03-04T05:39:15.406Z,21.90
2023-03-04T05:40:15.756Z,22.00
2023-03-04T05:41:15.977Z,21.60
2023-03-04T05:42:16.186Z,21.30
2023-03-04T05:43:16.472Z,21.10
2023-03-04T05:44:16.801Z,22.20
2023-03-04T05:45:17.157Z,21.00
2023-03-04T05:46:17.525Z,21.20
2023-03-04T05:47:17.715Z,22.70
2023-03-04T05:48:18.068Z,21.90
2023-03-04T05:49:18.388Z,22.40
2023-03-04T05:50:18.715Z,24.10
2023-03-04T05:51:19.022Z,23.20
2023-03-04T05:52:19.351Z,22.80
2023-03-04T05:53:19.708Z,23.60
2023-03-04T05:54:20.052Z,23.90
2023-03-04T05:55:20.440Z,22.80
2023-03-04T05:56:20.756Z,23.70
2023-03-04T05:57:21.077Z,23.00
2023-03-04T05:58:21.441Z,25.60
2023-03-04T05:59:21.606Z,25.70
2023-03-04T06:00:21.985Z,25.40
2023-03-04T06:01:22.197Z,30.20
2023-03-04T06:02:22.616Z,28.90
2023-03-04T06:03:22.916Z,29.80
2023-03-04T06:04:23.066Z,29.10
2023-03-04T06:05:23.267Z,29.50
2023-03-04T06:06:23.599Z,28.50
2023-03-04T06:07:23.916Z,27.00
2023-03-04T06:08:24.240Z,27.20
2023-03-04T06:09:24.594Z,26.30
2023-03-04T06:10:24.959Z,23.90
2023-03-04T06:11:25.131Z,22.10
2023-03-04T06:12:25.474Z,22.10
2023-03-04T06:13:25.811Z,22.20
2023-03-04T06:14:26.199Z,21.50
2023-03-04T06:15:26.367Z,21.00
2023-03-04T06:16:26.739Z,19.40
2023-03-04T06:17:26.968Z,20.00
2023-03-04T06:18:27.352Z,19.10
2023-03-04T06:19:27.518Z,19.00
2023-03-04T06:20:27.821Z,18.00
2023-03-04T06:21:28.086Z,17.60
2023-03-04T06:22:28.391Z,18.40
2023-03-04T06:23:28.725Z,18.50
2023-03-04T06:24:28.992Z,18.30
2023-03-04T06:25:29.360Z,18.20
2023-03-04T06:26:29.666Z,17.50
2023-03-04T06:27:29.978Z,18.30
2023-03-04T06:28:30.346Z,18.10
2023-03-04T06:29:30.633Z,17.50
2023-03-04T06:30:30.994Z,17.30
2023-03-04T06:31:31.311Z,17.30
2023-03-04T06:32:31.659Z,17.50
2023-03-04T06:33:31.882Z,17.20
2023-03-04T06:34:43.761Z,18.10
2023-03-04T06:35:32.556Z,17.50
2023-03-04T06:36:32.892Z,16.70
2023-03-04T06:37:33.101Z,18.20
2023-03-04T06:38:33.441Z,17.00
2023-03-04T06:39:33.816Z,17.30
2023-03-04T06:40:34.013Z,16.90
2023-03-04T06:41:34.277Z,16.70
2023-03-04T06:42:34.607Z,18.10
2023-03-04T06:43:34.941Z,17.60
2023-03-04T06:44:35.294Z,15.90
2023-03-04T06:45:35.510Z,15.90
2023-03-04T06:46:35.935Z,15.40
2023-03-04T06:47:36.103Z,16.60
2023-03-04T06:48:36.330Z,17.00
2023-03-04T06:49:36.654Z,16.10
2023-03-04T06:50:37.018Z,16.00
2023-03-04T06:51:37.173Z,15.50
2023-03-04T06:52:37.415Z,16.00
2023-03-04T06:53:37.714Z,16.20
2023-03-04T06:54:38.058Z,15.90
2023-03-04T06:55:38.160Z,15.30
2023-03-04T06:56:38.410Z,15.60
2023-03-04T06:57:38.729Z,12.00
2023-03-04T06:58:39.058Z,13.10
2023-03-04T06:59:39.315Z,13.40
2023-03-04T07:00:39.629Z,14.20
2023-03-04T07:01:39.889Z,13.10
2023-03-04T07:02:40.127Z,14.60
2023-03-04T07:03:40.382Z,12.50
2023-03-04T07:04:40.654Z,12.40
2023-03-04T07:05:40.989Z,13.50
2023-03-04T07:06:41.227Z,12.60
2023-03-04T07:07:41.464Z,12.80
2023-03-04T07:08:41.834Z,10.30
2023-03-04T07:09:41.974Z,14.30
2023-03-04T07:10:42.191Z,11.60
2023-03-04T07:11:42.658Z,11.90
2023-03-04T07:12:42.875Z,12.70
2023-03-04T07:13:43.153Z,12.10
2023-03-04T07:14:43.423Z,10.40
2023-03-04T07:15:43.655Z,11.10
2023-03-04T07:16:44.123Z,10.20
2023-03-04T07:17:44.256Z,10.00
2023-03-04T07:18:44.404Z,9.70
2023-03-04T07:19:44.619Z,10.60
2023-03-04T07:20:44.950Z,11.00
2023-03-04T07:21:45.263Z,9.80
2023-03-04T07:22:45.491Z,9.80
2023-03-04T07:23:45.768Z,10.60
2023-03-04T07:24:46.145Z,10.30
2023-03-04T07:25:46.342Z,9.80
2023-03-04T07:26:46.626Z,10.00
2023-03-04T07:27:46.910Z,10.00
2023-03-04T07:28:47.202Z,10.00
2023-03-04T07:29:47.487Z,10.00
2023-03-04T07:30:47.777Z,9.70
2023-03-04T07:31:48.028Z,9.30
2023-03-04T07:32:48.392Z,8.50
2023-03-04T07:33:48.582Z,7.00
2023-03-04T07:34:48.921Z,6.70
2023-03-04T07:35:49.302Z,6.40
2023-03-04T07:36:49.517Z,7.40
2023-03-04T07:37:49.787Z,7.20
2023-03-04T07:38:50.044Z,7.30
2023-03-04T07:39:50.307Z,6.50
2023-03-04T07:40:50.586Z,7.00
2023-03-04T07:41:50.831Z,6.60
2023-03-04T07:42:51.072Z,6.20
2023-03-04T07:43:51.351Z,5.80
2023-03-04T07:44:51.665Z,7.70
2023-03-04T07:45:52.097Z,7.10
2023-03-04T07:46:52.200Z,7.30
2023-03-04T07:47:52.467Z,7.90
2023-03-04T07:48:52.719Z,8.00
2023-03-04T07:49:53.104Z,7.60
2023-03-04T07:50:53.533Z,8.00
2023-03-04T07:51:53.601Z,7.70
2023-03-04T07:52:53.817Z,8.20
2023-03-04T07:53:54.162Z,8.20
2023-03-04T07:54:54.560Z,7.70
2023-03-04T07:55:54.794Z,6.80
2023-03-04T07:56:55.022Z,7.50
2023-03-04T07:57:55.257Z,6.50
2023-03-04T07:58:55.677Z,7.30
2023-03-04T07:59:56.020Z,8.40
2023-03-04T08:00:56.295Z,7.10
2023-03-04T08:01:56.571Z,7.30
2023-03-04T08:02:56.839Z,6.60
2023-03-04T08:03:57.069Z,6.50
2023-03-04T08:04:57.379Z,6.80
2023-03-04T08:05:57.615Z,7.30
2023-03-04T08:06:57.961Z,7.60
2023-03-04T08:07:58.137Z,7.50
2023-03-04T08:08:58.403Z,7.10
2023-03-04T08:09:58.687Z,6.90
2023-03-04T08:10:58.992Z,6.60
2023-03-04T08:11:59.309Z,6.70
2023-03-04T08:12:59.598Z,7.40
2023-03-04T08:13:59.883Z,8.10
2023-03-04T08:15:00.148Z,7.80
2023-03-04T08:16:00.476Z,7.20
2023-03-04T08:17:00.727Z,7.00
2023-03-04T08:18:01.000Z,7.50
2023-03-04T08:19:01.300Z,6.80
2023-03-04T08:20:01.562Z,5.80
2023-03-04T08:21:01.922Z,5.70
2023-03-04T08:22:02.251Z,4.70
2023-03-04T08:23:02.576Z,6.00
2023-03-04T08:24:02.814Z,5.60
2023-03-04T08:25:03.105Z,5.50
2023-03-04T08:26:03.375Z,5.50
2023-03-04T08:27:03.721Z,6.10
2023-03-04T08:28:04.009Z,5.90
2023-03-04T08:29:04.201Z,6.10
2023-03-04T08:30:04.682Z,6.50
2023-03-04T08:31:05.007Z,6.20
2023-03-04T08:32:05.408Z,5.60
2023-03-04T08:33:05.585Z,6.50
2023-03-04T08:34:05.779Z,6.60
2023-03-04T08:35:06.171Z,6.50
2023-03-04T08:36:06.384Z,6.70
2023-03-04T08:37:06.746Z,7.40
2023-03-04T08:38:07.018Z,8.00
2023-03-04T08:39:07.356Z,7.50
2023-03-04T08:40:07.562Z,7.60
2023-03-04T08:41:07.822Z,6.80
2023-03-04T08:42:08.111Z,6.60
2023-03-04T08:43:08.391Z,7.80
2023-03-04T08:44:08.832Z,6.70
2023-03-04T08:45:08.907Z,6.30
2023-03-04T08:46:09.222Z,5.40
2023-03-04T08:47:09.552Z,6.00
2023-03-04T08:48:10.083Z,5.40
2023-03-04T08:49:10.099Z,5.10
2023-03-04T08:50:10.396Z,4.80
2023-03-04T08:51:10.725Z,4.80
2023-03-04T08:52:11.018Z,4.80
2023-03-04T08:53:11.327Z,4.70
2023-03-04T08:54:11.613Z,4.70
2023-03-04T08:55:11.890Z,5.00
2023-03-04T08:56:12.222Z,5.00
2023-03-04T08:57:12.438Z,5.20
2023-03-04T08:58:12.733Z,6.10
2023-03-04T08:59:13.000Z,5.20
2023-03-04T09:00:13.337Z,6.00
2023-03-04T09:01:13.703Z,6.90
2023-03-04T09:02:13.897Z,7.20
2023-03-04T09:03:14.205Z,7.70
2023-03-04T09:04:14.488Z,6.80
2023-03-04T09:05:14.706Z,5.70
2023-03-04T09:06:15.017Z,5.50
2023-03-04T09:07:15.256Z,5.70
2023-03-04T09:08:15.533Z,5.00
2023-03-04T09:09:15.780Z,6.00
2023-03-04T09:10:16.100Z,5.80
2023-03-04T09:11:16.531Z,5.20
2023-03-04T09:12:16.709Z,4.60
2023-03-04T09:13:17.135Z,4.20
2023-03-04T09:14:17.311Z,4.10
2023-03-04T09:15:17.720Z,5.50
2023-03-04T09:16:17.874Z,6.30
2023-03-04T09:17:18.304Z,5.50
2023-03-04T09:18:18.388Z,5.20
2023-03-04T09:19:18.708Z,5.70
2023-03-04T09:20:19.015Z,5.30
2023-03-04T09:21:19.300Z,6.60
2023-03-04T09:22:19.554Z,6.30
2023-03-04T09:23:19.892Z,6.20
2023-03-04T09:24:20.130Z,5.80
2023-03-04T09:25:20.451Z,5.30
2023-03-04T09:26:20.728Z,6.00
2023-03-04T09:27:21.009Z,6.00
2023-03-04T09:28:21.238Z,6.30
2023-03-04T09:29:21.708Z,5.80
2023-03-04T09:30:21.909Z,5.30
2023-03-04T09:31:22.244Z,5.00
2023-03-04T09:32:22.585Z,4.90
2023-03-04T09:33:22.804Z,4.90
2023-03-04T09:34:23.141Z,4.60
2023-03-04T09:35:23.425Z,4.60
2023-03-04T09:36:23.710Z,4.40
2023-03-04T09:37:24.018Z,4.20
2023-03-04T09:38:24.265Z,4.50
2023-03-04T09:39:24.678Z,4.50
2023-03-04T09:40:24.898Z,4.60
2023-03-04T09:41:25.023Z,4.50
2023-03-04T09:42:25.414Z,5.00
2023-03-04T09:43:25.600Z,4.60
2023-03-04T09:44:25.918Z,4.80
2023-03-04T09:45:26.212Z,5.00
2023-03-04T09:46:26.604Z,4.40
2023-03-04T09:47:26.813Z,4.90
2023-03-04T09:48:27.047Z,4.60
2023-03-04T09:49:27.214Z,4.80
2023-03-04T09:50:27.512Z,4.40
2023-03-04T09:51:27.867Z,4.20
2023-03-04T09:52:28.082Z,4.10
2023-03-04T09:53:28.478Z,4.40
2023-03-04T09:54:28.731Z,3.70
2023-03-04T09:55:29.249Z,4.40
2023-03-04T09:56:29.702Z,4.00
2023-03-04T09:57:29.501Z,4.30
2023-03-04T09:58:29.722Z,4.20
2023-03-04T09:59:30.066Z,4.30
2023-03-04T10:00:30.243Z,4.50
2023-03-04T10:01:30.481Z,4.90
2023-03-04T10:02:30.736Z,4.80
2023-03-04T10:03:31.024Z,4.40
2023-03-04T10:04:31.268Z,4.60
2023-03-04T10:05:31.512Z,4.70
2023-03-04T10:06:31.760Z,5.30
2023-03-04T10:07:32.088Z,6.00
2023-03-04T10:08:32.392Z,5.90
2023-03-04T10:09:32.628Z,4.90
2023-03-04T10:10:33.018Z,5.30
2023-03-04T10:11:33.087Z,4.40
2023-03-04T10:12:33.436Z,4.30
2023-03-04T10:13:33.710Z,4.90
2023-03-04T10:14:34.439Z,4.80
2023-03-04T10:15:34.346Z,4.40
2023-03-04T10:16:34.606Z,5.80
2023-03-04T10:17:34.989Z,3.60
2023-03-04T10:18:35.117Z,3.40
2023-03-04T10:19:35.479Z,4.20
